createdAt,value
2022-10-30T00:02:26.062Z,13.12
2022-10-30T00:05:07.309Z,13.22
2022-10-30T00:07:50.889Z,13.32
2022-10-30T00:10:31.515Z,13.44
2022-10-30T00:13:14.866Z,13.49
2022-10-30T00:15:54.431Z,13.51
2022-10-30T00:18:37.082Z,13.51
2022-10-30T00:21:15.931Z,13.61
2022-10-30T00:23:56.884Z,13.57
2022-10-30T00:26:40.192Z,13.64
2022-10-30T00:29:23.499Z,13.69
2022-10-30T00:32:06.379Z,13.71
2022-10-30T00:34:47.266Z,13.70
2022-10-30T00:37:28.651Z,13.72
2022-10-30T00:40:12.735Z,13.72
2022-10-30T00:42:51.915Z,13.74
2022-10-30T00:45:33.044Z,13.74
2022-10-30T00:48:12.315Z,13.76
2022-10-30T00:50:52.431Z,13.75
2022-10-30T00:53:32.319Z,13.74
2022-10-30T00:56:13.656Z,13.74
2022-10-30T00:58:58.155Z,13.74
2022-10-30T01:01:51.385Z,13.69
2022-10-30T01:04:33.198Z,13.62
2022-10-30T01:07:17.922Z,13.59
2022-10-30T01:10:00.886Z,13.66
2022-10-30T01:12:41.912Z,13.64
2022-10-30T01:15:26.084Z,13.65
2022-10-30T01:18:20.553Z,13.63
2022-10-30T01:21:05.172Z,13.61
2022-10-30T01:23:48.846Z,13.61
2022-10-30T01:26:32.197Z,13.60
2022-10-30T01:29:19.952Z,13.59
2022-10-30T01:32:04.095Z,13.58
2022-10-30T01:34:48.176Z,13.55
2022-10-30T01:37:29.530Z,13.55
2022-10-30T01:40:12.445Z,13.54
2022-10-30T01:42:51.923Z,13.53
2022-10-30T01:45:43.998Z,13.52
2022-10-30T01:48:29.082Z,13.52
2022-10-30T01:51:12.733Z,13.50
2022-10-30T01:53:57.631Z,13.49
2022-10-30T01:56:39.616Z,13.50
2022-10-30T01:59:21.471Z,13.49
2022-10-30T02:02:01.739Z,13.47
2022-10-30T02:04:43.025Z,13.47
2022-10-30T02:07:24.521Z,13.45
2022-10-30T02:10:08.259Z,13.43
2022-10-30T02:12:48.854Z,13.41
2022-10-30T02:15:28.671Z,13.38
2022-10-30T02:18:10.587Z,13.36
2022-10-30T02:20:53.098Z,13.36
2022-10-30T02:23:36.491Z,13.35
2022-10-30T02:26:17.576Z,13.32
2022-10-30T02:28:58.842Z,13.31
2022-10-30T02:31:38.906Z,13.29
2022-10-30T02:34:21.164Z,13.27
2022-10-30T02:37:01.570Z,13.25
2022-10-30T02:39:42.983Z,13.24
2022-10-30T02:42:24.429Z,13.23
2022-10-30T02:45:08.071Z,13.22
2022-10-30T02:47:48.811Z,13.21
2022-10-30T02:50:30.132Z,13.19
2022-10-30T02:53:11.972Z,13.20
2022-10-30T02:56:09.415Z,13.16
2022-10-30T02:58:50.341Z,13.14
2022-10-30T03:01:32.431Z,13.14
2022-10-30T03:04:13.845Z,13.11
2022-10-30T03:06:58.665Z,13.09
2022-10-30T03:09:41.824Z,13.09
2022-10-30T03:12:22.867Z,13.06
2022-10-30T03:15:06.226Z,13.01
2022-10-30T03:17:47.687Z,12.98
2022-10-30T03:20:26.667Z,12.99
2022-10-30T03:23:07.897Z,12.97
2022-10-30T03:25:50.253Z,12.95
2022-10-30T03:28:31.568Z,12.94
2022-10-30T03:31:14.351Z,12.93
2022-10-30T03:33:56.654Z,12.92
2022-10-30T03:36:37.104Z,12.90
2022-10-30T03:39:18.429Z,12.90
2022-10-30T03:42:12.715Z,12.87
2022-10-30T03:44:53.069Z,12.87
2022-10-30T03:47:32.538Z,12.84
2022-10-30T03:50:14.801Z,12.85
2022-10-30T03:52:55.877Z,12.82
2022-10-30T03:55:37.076Z,12.83
2022-10-30T03:58:17.922Z,12.77
2022-10-30T04:01:01.432Z,12.75
2022-10-30T04:03:40.961Z,12.71
2022-10-30T04:06:24.768Z,12.70
2022-10-30T04:09:05.800Z,12.68
2022-10-30T04:11:51.954Z,12.66
2022-10-30T04:14:33.395Z,12.64
2022-10-30T04:17:14.775Z,12.59
2022-10-30T04:20:21.971Z,12.59
2022-10-30T04:23:03.154Z,12.58
2022-10-30T04:25:44.195Z,12.56
2022-10-30T04:28:25.600Z,12.54
2022-10-30T04:31:09.447Z,12.52
2022-10-30T04:33:49.934Z,12.50
2022-10-30T04:36:33.864Z,12.49
2022-10-30T04:39:16.411Z,12.48
2022-10-30T04:41:59.386Z,12.45
2022-10-30T04:44:47.190Z,12.41
2022-10-30T04:47:28.186Z,12.39
2022-10-30T04:50:10.940Z,12.38
2022-10-30T04:52:52.159Z,12.37
2022-10-30T04:55:32.732Z,12.31
2022-10-30T04:58:13.929Z,12.32
2022-10-30T05:01:02.009Z,12.31
2022-10-30T05:03:49.273Z,12.27
2022-10-30T05:06:34.118Z,12.26
2022-10-30T05:09:15.403Z,12.25
2022-10-30T05:11:59.108Z,12.25
2022-10-30T05:14:51.330Z,12.26
2022-10-30T05:17:34.079Z,12.22
2022-10-30T05:20:14.882Z,12.21
2022-10-30T05:23:00.424Z,12.22
2022-10-30T05:25:38.505Z,12.19
2022-10-30T05:28:21.827Z,12.18
2022-10-30T05:31:08.106Z,12.20
2022-10-30T05:34:07.580Z,12.18
2022-10-30T05:36:48.143Z,12.18
2022-10-30T05:39:30.193Z,12.16
2022-10-30T05:42:14.291Z,12.17
2022-10-30T05:45:02.061Z,12.17
2022-10-30T05:47:50.340Z,12.15
2022-10-30T05:50:33.904Z,12.16
2022-10-30T05:53:32.532Z,12.17
2022-10-30T05:56:13.536Z,12.15
2022-10-30T05:58:54.909Z,12.14
2022-10-30T06:01:36.374Z,12.15
2022-10-30T06:04:22.177Z,12.15
2022-10-30T06:07:02.457Z,12.14
2022-10-30T06:09:46.456Z,12.14
2022-10-30T06:12:36.306Z,12.16
2022-10-30T06:15:28.312Z,12.17
2022-10-30T06:18:06.886Z,12.17
2022-10-30T06:20:56.637Z,12.16
2022-10-30T06:24:23.611Z,12.17
2022-10-30T06:27:32.584Z,12.17
2022-10-30T06:30:15.140Z,12.16
2022-10-30T06:33:00.885Z,12.14
2022-10-30T06:35:41.596Z,12.14
2022-10-30T06:38:22.997Z,12.12
2022-10-30T06:41:08.102Z,12.10
2022-10-30T06:44:00.356Z,12.09
2022-10-30T06:46:41.774Z,12.07
2022-10-30T06:49:43.334Z,12.03
2022-10-30T06:52:25.286Z,11.98
2022-10-30T06:55:09.697Z,11.99
2022-10-30T06:57:59.663Z,11.97
2022-10-30T07:00:56.423Z,11.96
2022-10-30T07:04:02.716Z,11.94
2022-10-30T07:06:46.483Z,11.95
2022-10-30T07:09:27.497Z,11.93
2022-10-30T07:12:08.422Z,11.92
2022-10-30T07:15:10.558Z,11.92
2022-10-30T07:19:02.176Z,11.92
2022-10-30T07:21:48.545Z,11.94
2022-10-30T07:24:42.863Z,11.93
2022-10-30T07:27:35.072Z,11.92
2022-10-30T07:30:34.045Z,11.92
2022-10-30T07:33:32.705Z,11.95
2022-10-30T07:36:15.845Z,11.95
2022-10-30T07:39:04.897Z,11.96
2022-10-30T07:41:51.028Z,11.99
2022-10-30T07:48:09.218Z,12.05
2022-10-30T07:51:00.293Z,12.09
2022-10-30T07:53:42.290Z,12.10
2022-10-30T07:56:25.915Z,12.12
2022-10-30T07:59:07.722Z,12.19
2022-10-30T08:01:53.589Z,12.24
2022-10-30T08:04:47.777Z,12.27
2022-10-30T08:07:51.656Z,12.31
2022-10-30T08:10:33.364Z,12.35
2022-10-30T08:13:14.909Z,12.41
2022-10-30T08:15:55.726Z,12.50
2022-10-30T08:18:35.587Z,12.56
2022-10-30T08:21:17.960Z,12.62
2022-10-30T08:24:09.834Z,12.73
2022-10-30T08:26:49.155Z,12.80
2022-10-30T08:29:29.265Z,12.90
2022-10-30T08:32:10.679Z,13.00
2022-10-30T08:35:27.380Z,13.07
2022-10-30T08:38:10.222Z,13.21
2022-10-30T08:40:52.626Z,13.34
2022-10-30T08:43:33.003Z,13.40
2022-10-30T08:46:38.032Z,13.66
2022-10-30T08:49:31.387Z,13.78
2022-10-30T08:52:14.236Z,13.87
2022-10-30T08:54:55.670Z,13.94
2022-10-30T08:57:40.595Z,14.11
2022-10-30T09:00:23.820Z,14.22
2022-10-30T09:03:23.807Z,14.40
2022-10-30T09:06:26.015Z,14.56
2022-10-30T09:09:38.249Z,14.74
2022-10-30T09:12:21.369Z,14.89
2022-10-30T09:15:04.554Z,15.00
2022-10-30T09:17:59.682Z,15.13
2022-10-30T09:20:40.161Z,15.20
2022-10-30T09:23:22.013Z,15.28
2022-10-30T09:26:20.974Z,15.40
2022-10-30T09:29:35.479Z,15.54
2022-10-30T09:32:30.338Z,15.61
2022-10-30T09:35:19.376Z,15.70
2022-10-30T09:38:03.025Z,15.91
2022-10-30T09:40:49.368Z,16.05
2022-10-30T09:43:32.615Z,16.24
2022-10-30T09:46:19.903Z,16.40
2022-10-30T09:51:53.498Z,16.74
2022-10-30T09:54:38.342Z,16.90
2022-10-30T09:57:22.151Z,17.05
2022-10-30T10:00:05.197Z,17.25
2022-10-30T10:02:54.675Z,17.46
2022-10-30T10:05:39.363Z,17.71
2022-10-30T10:08:56.062Z,18.08
2022-10-30T10:11:54.216Z,18.36
2022-10-30T10:14:36.106Z,18.68
2022-10-30T10:17:21.210Z,18.98
2022-10-30T10:20:07.565Z,19.33
2022-10-30T10:22:49.509Z,19.68
2022-10-30T10:25:30.199Z,19.94
2022-10-30T10:28:13.015Z,20.14
2022-10-30T10:30:54.322Z,20.46
2022-10-30T10:33:37.571Z,20.82
2022-10-30T10:36:23.856Z,21.14
2022-10-30T10:39:06.159Z,21.46
2022-10-30T10:41:53.807Z,21.44
2022-10-30T10:44:39.745Z,21.89
2022-10-30T10:47:25.056Z,22.22
2022-10-30T10:50:07.975Z,22.39
2022-10-30T10:52:50.683Z,22.62
2022-10-30T10:55:33.084Z,22.47
2022-10-30T10:58:15.895Z,22.74
2022-10-30T11:00:58.789Z,22.94
2022-10-30T11:03:42.097Z,23.08
2022-10-30T11:06:27.130Z,23.32
2022-10-30T11:09:14.352Z,23.30
2022-10-30T11:11:56.461Z,23.56
2022-10-30T11:14:48.941Z,23.88
2022-10-30T11:17:30.253Z,23.73
2022-10-30T11:20:15.510Z,23.89
2022-10-30T11:23:00.867Z,24.44
2022-10-30T11:25:54.572Z,24.50
2022-10-30T11:28:37.066Z,24.66
2022-10-30T11:31:23.173Z,24.76
2022-10-30T11:34:31.293Z,24.90
2022-10-30T11:37:30.085Z,24.86
2022-10-30T11:40:18.361Z,24.83
2022-10-30T11:43:02.282Z,24.83
2022-10-30T11:45:43.619Z,24.89
2022-10-30T11:48:23.259Z,25.05
2022-10-30T11:51:03.494Z,25.18
2022-10-30T11:53:48.327Z,25.10
2022-10-30T11:56:50.972Z,25.19
2022-10-30T11:59:36.481Z,25.07
2022-10-30T12:02:23.917Z,24.96
2022-10-30T12:05:03.917Z,25.35
2022-10-30T12:07:45.662Z,25.59
2022-10-30T12:10:26.284Z,25.08
2022-10-30T12:13:06.530Z,25.00
2022-10-30T12:16:08.740Z,25.51
2022-10-30T12:19:00.236Z,25.52
2022-10-30T12:21:42.400Z,25.36
2022-10-30T12:24:25.706Z,25.24
2022-10-30T12:27:06.403Z,25.43
2022-10-30T12:30:07.994Z,25.38
2022-10-30T12:32:50.654Z,25.65
2022-10-30T12:35:39.479Z,25.66
2022-10-30T12:38:22.882Z,25.58
2022-10-30T12:41:03.307Z,25.64
2022-10-30T12:43:45.189Z,25.80
2022-10-30T12:46:29.252Z,26.00
2022-10-30T12:49:15.485Z,26.10
2022-10-30T12:51:57.389Z,26.12
2022-10-30T12:54:40.511Z,26.27
2022-10-30T12:57:22.335Z,26.28
2022-10-30T13:00:03.936Z,26.19
2022-10-30T13:02:43.920Z,25.98
2022-10-30T13:05:29.743Z,25.60
2022-10-30T13:08:31.803Z,25.74
2022-10-30T13:11:26.677Z,25.76
2022-10-30T13:14:06.853Z,25.27
2022-10-30T13:16:48.672Z,25.36
2022-10-30T13:19:29.673Z,25.39
2022-10-30T13:22:09.854Z,25.20
2022-10-30T13:24:53.048Z,24.98
2022-10-30T13:27:40.879Z,24.87
2022-10-30T13:30:24.536Z,24.78
2022-10-30T13:33:07.404Z,24.60
2022-10-30T13:35:48.312Z,24.40
2022-10-30T13:38:36.047Z,24.24
2022-10-30T13:41:19.535Z,24.00
2022-10-30T13:44:17.727Z,23.87
2022-10-30T13:47:06.414Z,23.79
2022-10-30T13:49:54.333Z,23.53
2022-10-30T13:52:37.270Z,23.29
2022-10-30T13:55:19.372Z,23.23
2022-10-30T13:58:01.376Z,23.09
2022-10-30T14:00:50.515Z,23.01
2022-10-30T14:03:32.828Z,22.88
2022-10-30T14:06:15.178Z,22.76
2022-10-30T14:09:00.327Z,22.60
2022-10-30T14:11:43.035Z,22.53
2022-10-30T14:14:28.074Z,22.44
2022-10-30T14:17:14.054Z,22.33
2022-10-30T14:20:14.342Z,22.25
2022-10-30T14:23:13.362Z,22.14
2022-10-30T14:26:11.921Z,22.05
2022-10-30T14:28:52.047Z,21.93
2022-10-30T14:31:45.090Z,21.82
2022-10-30T14:34:46.067Z,21.74
2022-10-30T14:37:57.014Z,21.67
2022-10-30T14:40:41.555Z,21.55
2022-10-30T14:43:24.517Z,21.44
2022-10-30T14:46:05.869Z,21.34
2022-10-30T14:48:49.471Z,21.21
2022-10-30T14:51:34.375Z,21.02
2022-10-30T14:54:18.640Z,20.98
2022-10-30T14:57:00.196Z,20.89
2022-10-30T14:59:41.552Z,20.82
2022-10-30T15:02:26.540Z,20.69
2022-10-30T15:05:18.913Z,20.57
2022-10-30T15:08:01.411Z,20.43
2022-10-30T15:10:44.190Z,20.36
2022-10-30T15:13:22.689Z,20.26
2022-10-30T15:16:04.066Z,20.15
2022-10-30T15:18:44.280Z,20.03
2022-10-30T15:21:29.367Z,19.90
2022-10-30T15:24:12.302Z,19.76
2022-10-30T15:26:53.864Z,19.68
2022-10-30T15:29:35.152Z,19.53
2022-10-30T15:32:17.617Z,19.41
2022-10-30T15:34:56.410Z,19.28
2022-10-30T15:37:37.289Z,19.18
2022-10-30T15:40:21.311Z,19.09
2022-10-30T15:43:02.462Z,18.96
2022-10-30T15:45:46.253Z,18.86
2022-10-30T15:48:24.546Z,18.75
2022-10-30T15:51:06.970Z,18.64
2022-10-30T15:53:46.563Z,18.50
2022-10-30T15:56:28.701Z,18.40
2022-10-30T15:59:16.884Z,18.28
2022-10-30T16:02:00.097Z,18.16
2022-10-30T16:04:40.939Z,18.03
2022-10-30T16:07:23.993Z,17.92
2022-10-30T16:10:05.913Z,17.79
2022-10-30T16:12:46.744Z,17.66
2022-10-30T16:15:26.872Z,17.55
2022-10-30T16:18:09.184Z,17.43
2022-10-30T16:20:50.543Z,17.34
2022-10-30T16:23:30.866Z,17.21
2022-10-30T16:26:13.728Z,17.12
2022-10-30T16:28:51.669Z,17.00
2022-10-30T16:31:33.209Z,16.89
2022-10-30T16:34:22.524Z,16.81
2022-10-30T16:37:03.053Z,16.73
2022-10-30T16:39:46.050Z,16.66
2022-10-30T16:42:25.816Z,16.58
2022-10-30T16:45:37.531Z,16.49
2022-10-30T16:48:24.426Z,16.38
2022-10-30T16:51:05.094Z,16.28
2022-10-30T16:54:00.040Z,16.20
2022-10-30T16:56:46.653Z,16.11
2022-10-30T16:59:28.419Z,16.01
2022-10-30T17:02:14.191Z,15.95
2022-10-30T17:04:58.138Z,15.87
2022-10-30T17:07:39.608Z,15.81
2022-10-30T17:10:33.826Z,15.73
2022-10-30T17:13:34.509Z,15.66
2022-10-30T17:16:25.095Z,15.58
2022-10-30T17:19:20.286Z,15.51
2022-10-30T17:22:01.400Z,15.45
2022-10-30T17:24:42.328Z,15.38
2022-10-30T17:27:28.360Z,15.32
2022-10-30T17:30:22.015Z,15.24
2022-10-30T17:33:00.894Z,15.17
2022-10-30T17:35:42.431Z,15.11
2022-10-30T17:38:25.832Z,15.05
2022-10-30T17:41:12.352Z,14.97
2022-10-30T17:43:53.611Z,14.92
2022-10-30T17:46:33.546Z,14.90
2022-10-30T17:49:19.573Z,14.82
2022-10-30T17:52:01.556Z,14.78
2022-10-30T17:54:42.309Z,14.72
2022-10-30T17:57:25.242Z,14.66
2022-10-30T18:00:07.077Z,14.62
2022-10-30T18:02:52.497Z,14.59
2022-10-30T18:05:34.118Z,14.55
2022-10-30T18:08:15.270Z,14.50
2022-10-30T18:10:57.098Z,14.47
2022-10-30T18:13:38.022Z,14.44
2022-10-30T18:16:20.110Z,14.40
2022-10-30T18:19:00.944Z,14.36
2022-10-30T18:21:42.481Z,14.34
2022-10-30T18:24:23.710Z,14.31
2022-10-30T18:27:04.227Z,14.29
2022-10-30T18:29:44.999Z,14.26
2022-10-30T18:32:28.387Z,14.24
2022-10-30T18:35:14.497Z,14.22
2022-10-30T18:37:55.603Z,14.19
2022-10-30T18:40:37.024Z,14.18
2022-10-30T18:43:20.460Z,14.17
2022-10-30T18:46:01.443Z,14.15
2022-10-30T18:48:45.369Z,14.12
2022-10-30T18:51:26.529Z,14.11
2022-10-30T18:54:11.906Z,14.10
2022-10-30T18:56:53.899Z,14.08
2022-10-30T18:59:34.894Z,14.08
2022-10-30T19:02:28.243Z,14.07
2022-10-30T19:05:21.912Z,14.05
2022-10-30T19:08:04.596Z,14.03
2022-10-30T19:10:44.568Z,14.02
2022-10-30T19:13:26.833Z,14.01
2022-10-30T19:16:10.173Z,13.99
2022-10-30T19:18:52.834Z,13.97
2022-10-30T19:21:33.471Z,13.94
2022-10-30T19:24:15.071Z,13.93
2022-10-30T19:26:56.090Z,13.88
2022-10-30T19:29:37.443Z,13.87
2022-10-30T19:32:17.904Z,13.85
2022-10-30T19:35:18.163Z,13.85
2022-10-30T19:38:11.684Z,13.81
2022-10-30T19:41:13.323Z,13.79
2022-10-30T19:43:54.760Z,13.76
2022-10-30T19:46:35.265Z,13.76
2022-10-30T19:49:17.983Z,13.72
2022-10-30T19:52:19.781Z,13.70
2022-10-30T19:55:01.115Z,13.70
2022-10-30T19:57:41.530Z,13.70
2022-10-30T20:00:24.259Z,13.68
2022-10-30T20:03:03.280Z,13.67
2022-10-30T20:05:45.342Z,13.66
2022-10-30T20:08:25.846Z,13.63
2022-10-30T20:11:07.018Z,13.59
2022-10-30T20:13:52.206Z,13.58
2022-10-30T20:16:35.607Z,13.57
2022-10-30T20:19:29.496Z,13.56
2022-10-30T20:22:12.515Z,13.53
2022-10-30T20:24:51.816Z,13.50
2022-10-30T20:27:32.103Z,13.46
2022-10-30T20:30:17.514Z,13.43
2022-10-30T20:32:59.230Z,13.39
2022-10-30T20:35:40.428Z,13.37
2022-10-30T20:38:21.378Z,13.34
2022-10-30T20:41:03.933Z,13.32
2022-10-30T20:44:00.349Z,13.28
2022-10-30T20:46:42.708Z,13.24
2022-10-30T20:49:23.019Z,13.22
2022-10-30T20:52:05.680Z,13.19
2022-10-30T20:54:46.864Z,13.16
2022-10-30T20:57:30.391Z,13.15
2022-10-30T21:00:22.778Z,13.14
2022-10-30T21:03:04.134Z,13.11
2022-10-30T21:05:59.084Z,13.10
2022-10-30T21:08:40.701Z,13.06
2022-10-30T21:11:21.125Z,13.03
2022-10-30T21:14:02.467Z,13.00
2022-10-30T21:17:03.105Z,13.00
2022-10-30T21:19:44.540Z,12.99
2022-10-30T21:22:27.860Z,12.97
2022-10-30T21:25:10.165Z,12.92
2022-10-30T21:27:50.273Z,12.93
2022-10-30T21:30:32.779Z,12.91
2022-10-30T21:33:15.090Z,12.91
2022-10-30T21:36:12.915Z,12.88
2022-10-30T21:38:53.180Z,12.88
2022-10-30T21:41:34.999Z,12.87
2022-10-30T21:44:15.897Z,12.88
2022-10-30T21:46:57.763Z,12.84
2022-10-30T21:49:39.196Z,12.84
2022-10-30T21:52:17.577Z,12.84
2022-10-30T21:54:57.668Z,12.82
2022-10-30T21:57:38.547Z,12.83
2022-10-30T22:00:32.316Z,12.81
2022-10-30T22:03:29.771Z,12.78
2022-10-30T22:06:10.722Z,12.76
2022-10-30T22:08:52.895Z,12.75
2022-10-30T22:11:33.046Z,12.72
2022-10-30T22:14:12.742Z,12.71
2022-10-30T22:16:53.587Z,12.71
2022-10-30T22:19:46.504Z,12.70
2022-10-30T22:22:39.943Z,12.69
2022-10-30T22:25:20.908Z,12.66
2022-10-30T22:28:14.113Z,12.65
2022-10-30T22:30:55.457Z,12.63
2022-10-30T22:33:57.529Z,12.64
2022-10-30T22:36:37.020Z,12.61
2022-10-30T22:39:18.853Z,12.59
2022-10-30T22:42:09.291Z,12.58
2022-10-30T22:45:18.788Z,12.57
2022-10-30T22:48:20.809Z,12.57
2022-10-30T22:51:05.181Z,12.56
2022-10-30T22:53:46.188Z,12.56
2022-10-30T22:56:32.654Z,12.56
2022-10-30T22:59:14.725Z,12.56
2022-10-30T23:01:55.814Z,12.54
2022-10-30T23:04:36.284Z,12.53
2022-10-30T23:07:32.420Z,12.52
2022-10-30T23:10:12.449Z,12.53
2022-10-30T23:12:53.775Z,12.50
2022-10-30T23:15:46.448Z,12.48
2022-10-30T23:18:26.885Z,12.49
2022-10-30T23:21:11.958Z,12.47
2022-10-30T23:23:54.197Z,12.46
2022-10-30T23:26:35.551Z,12.45
2022-10-30T23:29:16.733Z,12.42
2022-10-30T23:31:58.035Z,12.39
2022-10-30T23:34:39.449Z,12.40
2022-10-30T23:37:20.848Z,12.37
2022-10-30T23:40:02.266Z,12.33
2022-10-30T23:42:43.672Z,12.32
2022-10-30T23:45:25.039Z,12.30
2022-10-30T23:48:04.779Z,12.32
2022-10-30T23:50:44.370Z,12.32
2022-10-30T23:53:24.176Z,12.31
2022-10-30T23:56:06.315Z,12.36
2022-10-30T23:58:47.752Z,12.36
